CYHU/YHU METAR and TAF weather

Enter ICAO airport designator
Station Type Date Time Source
CYHU METAR 2018/07/16 23:00 UTC NOAA

CYHU 162300Z AUTO 17007KT 9SM CLR 32/15 A2981 RMK SLP095 DENSITY ALT 2100FT


Station Type Date Time Source
CYHU Decoded METAR 2018/07/16 23:00 UTC NOAA

Saint Hubert Airport , Canada (CYHU) 45-31N 073-25W
Jul 16, 2018 - 07:00 PM EDT / 2018.07.16 2300 UTC
Wind: from the S (170 degrees) at 8 MPH (7 KT):0
Visibility: 9 mile(s):0
Sky conditions: clear
Temperature: 89 F (32 C)
Dew Point: 59 F (15 C)
Relative Humidity: 35%
Pressure (altimeter): 29.81 in. Hg (1009 hPa)
ob: CYHU 162300Z AUTO 17007KT 9SM CLR 32/15 A2981 RMK SLP095 DENSITY ALT 2100FT
cycle: 23

Station Type Date Time Source
CYHU TAF 2018/07/16 18:45 UTC NOAA

TAF TAF CYHU 161739Z 1618/1718 14008KT P6SM FEW120 BKN260
BECMG 1700/1702 19010KT
FM170400 22012KT P6SM BKN080
FM170700 22015KT P6SM -SHRA OVC060
FM171100 20015KT 4SM -SHRA BR OVC012 PROB30 1711/1713 VRB15G30KT 2SM TSRA BR SCT008 OVC010CB
FM171600 25012KT P6SM BKN015
RMK FCST BASED ON AUTO OBS. NXT FCST BY 170000Z


Example: see airport list